createdAt,value
2023-03-31T00:00:53.076Z,2.72
2023-03-31T00:03:23.904Z,2.00
2023-03-31T00:05:59.029Z,2.03
2023-03-31T00:08:29.903Z,2.42
2023-03-31T00:11:00.757Z,1.73
2023-03-31T00:13:29.335Z,2.20
2023-03-31T00:15:58.107Z,2.00
2023-03-31T00:18:26.252Z,2.08
2023-03-31T00:21:05.873Z,1.50
2023-03-31T00:23:33.112Z,2.28
2023-03-31T00:26:00.353Z,2.72
2023-03-31T00:28:27.481Z,2.38
2023-03-31T00:31:00.884Z,1.90
2023-03-31T00:33:28.314Z,1.85
2023-03-31T00:35:56.062Z,2.05
2023-03-31T00:38:23.264Z,1.83
2023-03-31T00:40:52.610Z,2.67
2023-03-31T00:43:28.876Z,2.03
2023-03-31T00:46:03.412Z,2.30
2023-03-31T00:48:31.565Z,2.63
2023-03-31T00:50:59.536Z,2.05
2023-03-31T00:53:29.674Z,2.35
2023-03-31T00:56:00.916Z,1.70
2023-03-31T00:58:28.330Z,1.60
2023-03-31T01:00:57.695Z,1.90
2023-03-31T01:03:25.208Z,1.98
2023-03-31T01:05:56.170Z,2.13
2023-03-31T01:08:25.932Z,2.65
2023-03-31T01:10:58.506Z,2.30
2023-03-31T01:13:27.292Z,1.85
2023-03-31T01:15:54.829Z,2.17
2023-03-31T01:18:22.516Z,2.30
2023-03-31T01:20:49.674Z,1.95
2023-03-31T01:23:32.153Z,1.60
2023-03-31T01:26:29.379Z,1.95
2023-03-31T01:29:11.833Z,2.05
2023-03-31T01:31:54.181Z,1.48
2023-03-31T01:34:39.829Z,2.60
2023-03-31T01:37:15.683Z,2.22
2023-03-31T01:40:10.695Z,1.73
2023-03-31T01:42:52.617Z,1.63
2023-03-31T01:45:38.305Z,2.05
2023-03-31T01:48:18.237Z,1.95
2023-03-31T01:50:55.989Z,1.67
2023-03-31T01:53:58.574Z,1.27
2023-03-31T01:56:34.749Z,1.55
2023-03-31T01:59:17.410Z,1.88
2023-03-31T02:02:14.087Z,1.63
2023-03-31T02:04:46.705Z,1.40
2023-03-31T02:07:20.047Z,1.50
2023-03-31T02:09:50.989Z,2.13
2023-03-31T02:12:19.618Z,1.92
2023-03-31T02:14:48.111Z,1.90
2023-03-31T02:17:19.346Z,1.65
2023-03-31T02:19:50.488Z,1.95
2023-03-31T02:22:19.774Z,2.20
2023-03-31T02:24:48.933Z,1.52
2023-03-31T02:27:21.336Z,2.00
2023-03-31T02:29:49.218Z,2.08
2023-03-31T02:32:41.738Z,1.33
2023-03-31T02:35:20.366Z,1.65
2023-03-31T02:37:49.711Z,1.50
2023-03-31T02:40:19.243Z,1.85
2023-03-31T02:42:46.627Z,1.33
2023-03-31T02:45:38.611Z,1.70
2023-03-31T02:48:15.116Z,1.50
2023-03-31T02:51:02.523Z,1.77
2023-03-31T02:53:33.544Z,1.23
2023-03-31T02:56:04.402Z,1.67
2023-03-31T02:58:37.714Z,1.80
2023-03-31T03:01:11.978Z,1.35
2023-03-31T03:03:45.925Z,1.45
2023-03-31T03:06:18.737Z,1.73
2023-03-31T03:09:18.367Z,1.85
2023-03-31T03:12:04.143Z,1.88
2023-03-31T03:14:40.708Z,1.38
2023-03-31T03:17:12.604Z,2.20
2023-03-31T03:19:41.610Z,1.67
2023-03-31T03:22:09.450Z,1.80
2023-03-31T03:24:36.640Z,2.13
2023-03-31T03:27:04.213Z,2.15
2023-03-31T03:29:31.512Z,2.45
2023-03-31T03:31:58.639Z,1.83
2023-03-31T03:34:27.005Z,1.48
2023-03-31T03:36:54.213Z,1.45
2023-03-31T03:39:21.412Z,1.40
2023-03-31T03:41:48.585Z,1.40
2023-03-31T03:44:15.867Z,1.58
2023-03-31T03:46:43.103Z,1.50
2023-03-31T03:49:10.311Z,2.13
2023-03-31T03:51:37.570Z,1.73
2023-03-31T03:54:04.838Z,1.38
2023-03-31T03:56:31.952Z,1.17
2023-03-31T03:58:59.290Z,2.67
2023-03-31T04:01:26.434Z,1.27
2023-03-31T04:03:53.667Z,1.58
2023-03-31T04:06:20.919Z,1.10
2023-03-31T04:08:48.103Z,1.25
2023-03-31T04:11:19.015Z,1.45
2023-03-31T04:13:47.183Z,1.83
2023-03-31T04:16:14.782Z,1.25
2023-03-31T04:18:42.791Z,2.10
2023-03-31T04:21:12.431Z,1.40
2023-03-31T04:23:48.906Z,1.42
2023-03-31T04:26:18.203Z,1.90
2023-03-31T04:28:50.701Z,1.67
2023-03-31T04:31:25.433Z,1.40
2023-03-31T04:33:54.082Z,1.40
2023-03-31T04:36:21.985Z,1.70
2023-03-31T04:38:56.376Z,1.77
2023-03-31T04:41:25.101Z,1.75
2023-03-31T04:43:52.266Z,1.38
2023-03-31T04:46:19.867Z,1.98
2023-03-31T04:48:47.175Z,2.05
2023-03-31T04:51:15.603Z,1.73
2023-03-31T04:53:42.859Z,1.63
2023-03-31T04:56:10.742Z,1.98
2023-03-31T04:58:38.485Z,1.50
2023-03-31T05:01:08.465Z,1.60
2023-03-31T05:03:35.989Z,1.83
2023-03-31T05:06:03.413Z,2.00
2023-03-31T05:08:30.777Z,2.38
2023-03-31T05:10:58.151Z,2.03
2023-03-31T05:13:25.353Z,1.40
2023-03-31T05:15:52.559Z,1.85
2023-03-31T05:18:19.729Z,2.00
2023-03-31T05:20:47.031Z,1.70
2023-03-31T05:23:14.463Z,2.00
2023-03-31T05:25:42.552Z,2.20
2023-03-31T05:28:10.186Z,1.83
2023-03-31T05:30:37.410Z,1.63
2023-03-31T05:33:04.669Z,2.08
2023-03-31T05:35:31.986Z,1.85
2023-03-31T05:37:59.288Z,1.70
2023-03-31T05:40:26.500Z,2.03
2023-03-31T05:42:53.680Z,1.98
2023-03-31T05:45:20.846Z,2.15
2023-03-31T05:47:48.059Z,2.35
2023-03-31T05:50:15.240Z,1.75
2023-03-31T05:52:43.459Z,2.47
2023-03-31T05:55:10.785Z,2.10
2023-03-31T05:57:37.995Z,2.03
2023-03-31T06:00:06.553Z,1.80
2023-03-31T06:02:33.987Z,2.25
2023-03-31T06:05:01.276Z,1.75
2023-03-31T06:07:28.602Z,2.08
2023-03-31T06:09:55.852Z,2.05
2023-03-31T06:12:23.062Z,1.90
2023-03-31T06:14:50.225Z,2.70
2023-03-31T06:17:17.417Z,2.22
2023-03-31T06:19:44.728Z,2.50
2023-03-31T06:22:11.897Z,2.60
2023-03-31T06:24:39.095Z,2.22
2023-03-31T06:27:07.067Z,1.88
2023-03-31T06:29:34.230Z,2.40
2023-03-31T06:32:02.114Z,2.63
2023-03-31T06:34:29.366Z,2.67
2023-03-31T06:36:56.572Z,2.80
2023-03-31T06:39:25.722Z,2.28
2023-03-31T06:41:54.147Z,2.25
2023-03-31T06:44:23.102Z,2.80
2023-03-31T06:46:50.568Z,2.10
2023-03-31T06:49:17.819Z,1.85
2023-03-31T06:51:44.969Z,2.90
2023-03-31T06:54:12.161Z,2.25
2023-03-31T06:56:39.317Z,2.47
2023-03-31T06:59:06.580Z,2.28
2023-03-31T07:01:37.388Z,3.45
2023-03-31T07:04:05.032Z,2.25
2023-03-31T07:06:32.196Z,2.33
2023-03-31T07:08:59.422Z,2.70
2023-03-31T07:11:26.650Z,2.58
2023-03-31T07:13:53.812Z,2.15
2023-03-31T07:16:21.469Z,3.28
2023-03-31T07:18:50.402Z,2.15
2023-03-31T07:21:17.631Z,2.53
2023-03-31T07:23:44.813Z,2.78
2023-03-31T07:26:12.676Z,2.83
2023-03-31T07:28:39.920Z,3.08
2023-03-31T07:31:14.651Z,2.60
2023-03-31T07:33:42.313Z,3.13
2023-03-31T07:36:13.318Z,2.42
2023-03-31T07:38:46.680Z,2.25
2023-03-31T07:41:15.226Z,3.17
2023-03-31T07:43:42.437Z,2.95
2023-03-31T07:46:39.352Z,2.58
2023-03-31T07:49:07.998Z,2.83
2023-03-31T07:51:35.336Z,2.63
2023-03-31T07:54:02.518Z,1.90
2023-03-31T07:56:29.700Z,2.30
2023-03-31T07:58:57.899Z,2.40
2023-03-31T08:01:26.275Z,2.13
2023-03-31T08:03:55.388Z,1.95
2023-03-31T08:06:23.940Z,2.10
2023-03-31T08:08:51.465Z,1.83
2023-03-31T08:11:19.630Z,2.47
2023-03-31T08:13:47.562Z,2.30
2023-03-31T08:16:14.880Z,1.98
2023-03-31T08:18:42.309Z,1.85
2023-03-31T08:21:12.544Z,1.77
2023-03-31T08:23:39.762Z,2.05
2023-03-31T08:26:11.619Z,1.67
2023-03-31T08:28:39.069Z,1.50
2023-03-31T08:31:07.725Z,1.38
2023-03-31T08:33:35.495Z,2.10
2023-03-31T08:36:09.147Z,2.30
2023-03-31T08:38:39.098Z,2.45
2023-03-31T08:41:07.642Z,2.30
2023-03-31T08:43:42.294Z,1.90
2023-03-31T08:46:12.936Z,1.93
2023-03-31T08:48:48.752Z,2.45
2023-03-31T08:51:21.777Z,2.28
2023-03-31T08:54:16.551Z,1.73
2023-03-31T08:56:47.646Z,1.85
2023-03-31T08:59:26.716Z,1.75
2023-03-31T09:01:57.145Z,2.00
2023-03-31T09:04:27.221Z,1.73
2023-03-31T09:07:28.174Z,2.10
2023-03-31T09:10:13.396Z,1.88
2023-03-31T09:12:56.365Z,2.20
2023-03-31T09:15:29.215Z,2.00
2023-03-31T09:18:00.806Z,1.88
2023-03-31T09:20:32.472Z,1.70
2023-03-31T09:23:03.204Z,2.05
2023-03-31T09:25:34.666Z,2.30
2023-03-31T09:28:03.983Z,1.67
2023-03-31T09:30:34.228Z,2.17
2023-03-31T09:33:43.312Z,1.73
2023-03-31T09:36:18.661Z,2.00
2023-03-31T09:38:46.980Z,2.22
2023-03-31T09:41:16.665Z,1.98
2023-03-31T09:43:46.364Z,2.30
2023-03-31T09:46:18.556Z,1.85
2023-03-31T09:48:52.765Z,2.15
2023-03-31T09:51:26.583Z,1.63
2023-03-31T09:54:02.936Z,2.00
2023-03-31T09:56:52.296Z,1.92
2023-03-31T09:59:22.585Z,1.70
2023-03-31T10:01:53.097Z,1.73
2023-03-31T10:04:25.154Z,1.80
2023-03-31T10:06:54.196Z,1.65
2023-03-31T10:09:25.632Z,2.03
2023-03-31T10:11:56.097Z,2.30
2023-03-31T10:14:53.518Z,1.50
2023-03-31T10:17:23.395Z,2.35
2023-03-31T10:19:57.168Z,2.28
2023-03-31T10:22:30.956Z,1.50
2023-03-31T10:25:18.236Z,1.40
2023-03-31T10:27:48.979Z,1.90
2023-03-31T10:30:22.292Z,1.45
2023-03-31T10:32:52.576Z,1.92
2023-03-31T10:35:27.845Z,2.28
2023-03-31T10:37:57.969Z,2.33
2023-03-31T10:40:27.093Z,1.92
2023-03-31T10:43:12.678Z,1.98
2023-03-31T10:45:47.825Z,2.15
2023-03-31T10:48:25.420Z,1.60
2023-03-31T10:50:53.296Z,2.90
2023-03-31T10:53:20.752Z,1.48
2023-03-31T10:56:13.469Z,1.95
2023-03-31T10:58:58.170Z,1.45
2023-03-31T11:01:46.535Z,1.98
2023-03-31T11:04:43.336Z,2.00
2023-03-31T11:07:20.904Z,1.42
2023-03-31T11:10:01.620Z,1.75
2023-03-31T11:12:43.991Z,1.83
2023-03-31T11:15:32.422Z,1.27
2023-03-31T11:18:21.782Z,1.38
2023-03-31T11:21:11.187Z,2.10
2023-03-31T11:23:44.640Z,2.45
2023-03-31T11:26:21.625Z,1.50
2023-03-31T11:29:09.474Z,1.75
2023-03-31T11:32:01.165Z,1.40
2023-03-31T11:34:49.458Z,1.63
2023-03-31T11:37:31.958Z,1.27
2023-03-31T11:40:23.471Z,1.77
2023-03-31T11:42:55.904Z,1.60
2023-03-31T11:45:31.957Z,2.00
2023-03-31T11:48:07.808Z,1.67
2023-03-31T11:50:38.678Z,1.30
2023-03-31T11:53:27.593Z,1.48
2023-03-31T11:55:55.863Z,2.05
2023-03-31T11:58:27.743Z,1.90
2023-03-31T12:01:04.576Z,1.58
2023-03-31T12:03:38.440Z,2.40
2023-03-31T12:06:17.395Z,2.08
2023-03-31T12:08:54.069Z,2.08
2023-03-31T12:11:29.362Z,2.28
2023-03-31T12:14:31.697Z,2.40
2023-03-31T12:17:16.134Z,1.92
2023-03-31T12:19:56.727Z,2.20
2023-03-31T12:22:31.620Z,2.63
2023-03-31T12:24:59.090Z,2.25
2023-03-31T12:27:44.191Z,2.08
2023-03-31T12:30:27.251Z,2.17
2023-03-31T12:32:58.889Z,2.38
2023-03-31T12:35:58.477Z,1.67
2023-03-31T12:38:31.592Z,2.10
2023-03-31T12:41:09.618Z,2.05
2023-03-31T12:43:50.473Z,1.77
2023-03-31T12:46:33.263Z,1.70
2023-03-31T12:49:22.931Z,1.30
2023-03-31T12:52:34.427Z,1.70
2023-03-31T12:55:39.012Z,1.42
2023-03-31T12:58:32.477Z,1.15
2023-03-31T13:01:05.819Z,1.23
2023-03-31T13:03:41.138Z,1.45
2023-03-31T13:06:12.425Z,1.25
2023-03-31T13:08:48.608Z,1.10
2023-03-31T13:11:16.598Z,1.17
2023-03-31T13:14:00.932Z,1.13
2023-03-31T13:16:29.975Z,1.30
2023-03-31T13:18:57.675Z,1.55
2023-03-31T13:21:25.553Z,1.40
2023-03-31T13:23:53.643Z,1.65
2023-03-31T13:26:35.881Z,2.22
2023-03-31T13:29:13.813Z,1.60
2023-03-31T13:32:02.942Z,2.42
2023-03-31T13:34:42.582Z,2.05
2023-03-31T13:37:37.800Z,3.13
2023-03-31T13:40:37.888Z,2.70
2023-03-31T13:43:22.859Z,3.45
2023-03-31T13:46:15.352Z,3.80
2023-03-31T13:49:08.391Z,3.20
2023-03-31T13:52:10.020Z,3.05
2023-03-31T13:54:46.513Z,2.85
2023-03-31T13:57:41.447Z,2.55
2023-03-31T14:00:27.356Z,2.78
2023-03-31T14:03:12.286Z,2.33
2023-03-31T14:05:43.464Z,2.10
2023-03-31T14:08:15.011Z,1.90
2023-03-31T15:53:38.299Z,3.13
2023-03-31T15:56:05.708Z,3.90
2023-03-31T15:58:53.421Z,3.22
2023-03-31T16:01:20.827Z,3.17
2023-03-31T16:03:48.269Z,3.17
2023-03-31T16:06:22.991Z,4.82
2023-03-31T16:09:03.807Z,13.27
2023-03-31T16:11:54.878Z,14.48
2023-03-31T16:14:29.232Z,15.95
2023-03-31T16:17:00.364Z,16.57
2023-03-31T16:19:29.506Z,17.33
2023-03-31T16:21:59.585Z,20.00
2023-03-31T16:24:31.917Z,30.80
2023-03-31T16:27:06.879Z,38.28
2023-03-31T16:29:35.430Z,40.58
2023-03-31T16:32:19.341Z,36.97
2023-03-31T16:34:51.955Z,39.83
2023-03-31T16:37:19.986Z,42.83
2023-03-31T16:39:47.193Z,41.05
2023-03-31T16:42:14.424Z,38.17
2023-03-31T16:44:42.681Z,38.72
2023-03-31T16:47:13.227Z,38.10
2023-03-31T16:49:44.806Z,39.80
2023-03-31T16:52:12.394Z,36.40
2023-03-31T16:54:39.577Z,36.58
2023-03-31T16:57:07.196Z,36.88
2023-03-31T16:59:34.420Z,36.33
2023-03-31T17:02:01.692Z,38.20
2023-03-31T17:04:29.740Z,35.20
2023-03-31T17:06:57.357Z,36.20
2023-03-31T17:09:24.552Z,34.80
2023-03-31T17:11:51.770Z,34.05
2023-03-31T17:14:18.932Z,34.40
2023-03-31T17:19:33.302Z,28.42
2023-03-31T17:22:01.996Z,32.60
2023-03-31T17:24:29.283Z,31.58
2023-03-31T17:26:57.509Z,32.67
2023-03-31T17:29:24.867Z,30.23
2023-03-31T17:31:52.171Z,31.80
2023-03-31T17:34:19.357Z,30.48
2023-03-31T17:36:47.418Z,31.42
2023-03-31T17:39:14.608Z,29.83
2023-03-31T17:41:41.891Z,29.85
2023-03-31T17:44:09.793Z,27.38
2023-03-31T17:46:37.117Z,28.77
2023-03-31T17:49:04.567Z,28.38
2023-03-31T17:51:34.548Z,27.48
2023-03-31T17:54:03.238Z,27.65
2023-03-31T17:56:30.415Z,26.65
2023-03-31T17:58:57.681Z,26.13
2023-03-31T18:01:25.024Z,24.83
2023-03-31T18:03:54.454Z,21.30
2023-03-31T18:06:22.390Z,24.73
2023-03-31T18:08:49.796Z,25.20
2023-03-31T18:11:17.261Z,23.65
2023-03-31T18:13:44.783Z,23.58
2023-03-31T18:16:13.155Z,22.95
2023-03-31T18:18:41.457Z,23.27
2023-03-31T18:21:10.980Z,21.30
2023-03-31T18:23:38.351Z,22.90
2023-03-31T18:26:10.071Z,22.17
2023-03-31T18:28:37.398Z,18.95
2023-03-31T18:31:05.672Z,21.25
2023-03-31T18:33:33.175Z,20.65
2023-03-31T18:36:01.059Z,21.05
2023-03-31T18:38:28.934Z,21.15
2023-03-31T18:40:56.556Z,21.95
2023-03-31T18:43:24.679Z,21.63
2023-03-31T18:45:53.734Z,19.92
2023-03-31T18:48:22.166Z,18.88
2023-03-31T18:50:51.358Z,20.30
2023-03-31T18:53:19.352Z,19.95
2023-03-31T18:55:50.654Z,19.40
2023-03-31T18:58:18.116Z,19.30
2023-03-31T19:00:45.518Z,19.75
2023-03-31T19:03:13.697Z,18.55
2023-03-31T19:05:41.000Z,19.45
2023-03-31T19:08:08.356Z,18.20
2023-03-31T19:10:36.510Z,18.65
2023-03-31T19:13:04.105Z,18.92
2023-03-31T19:15:31.602Z,19.45
2023-03-31T19:17:59.051Z,18.45
2023-03-31T19:20:26.303Z,16.80
2023-03-31T19:22:53.701Z,17.38
2023-03-31T19:25:21.513Z,16.85
2023-03-31T19:27:49.347Z,16.55
2023-03-31T19:30:22.096Z,17.63
2023-03-31T19:32:50.190Z,18.38
2023-03-31T19:35:19.149Z,18.25
2023-03-31T19:37:46.878Z,16.27
2023-03-31T19:40:14.518Z,17.00
2023-03-31T19:42:44.590Z,16.85
2023-03-31T19:45:12.178Z,16.08
2023-03-31T19:47:39.601Z,15.88
2023-03-31T19:50:07.407Z,16.90
2023-03-31T19:52:34.992Z,15.88
2023-03-31T19:55:02.157Z,14.60
2023-03-31T19:57:29.408Z,15.63
2023-03-31T19:59:56.670Z,17.00
2023-03-31T20:02:24.119Z,16.25
2023-03-31T20:04:51.642Z,16.27
2023-03-31T20:07:19.963Z,14.70
2023-03-31T20:09:47.241Z,13.60
2023-03-31T20:12:14.426Z,15.20
2023-03-31T20:14:41.583Z,13.70
2023-03-31T20:17:10.091Z,14.95
2023-03-31T20:19:37.285Z,16.35
2023-03-31T20:22:04.646Z,15.13
2023-03-31T20:24:31.874Z,14.13
2023-03-31T20:27:02.966Z,14.10
2023-03-31T20:29:30.943Z,12.82
2023-03-31T20:31:58.215Z,13.25
2023-03-31T20:34:27.506Z,13.93
2023-03-31T20:36:55.137Z,14.10
2023-03-31T20:39:22.633Z,13.77
2023-03-31T20:41:50.398Z,14.18
2023-03-31T20:44:17.601Z,12.85
2023-03-31T20:46:45.092Z,12.88
2023-03-31T20:49:12.684Z,12.85
2023-03-31T20:51:40.038Z,12.63
2023-03-31T20:54:07.926Z,13.90
2023-03-31T20:56:38.415Z,14.68
2023-03-31T20:59:08.074Z,13.38
2023-03-31T21:01:36.494Z,13.93
2023-03-31T21:04:06.718Z,13.07
2023-03-31T21:06:39.925Z,13.43
2023-03-31T21:09:07.781Z,12.50
2023-03-31T21:11:34.966Z,11.43
2023-03-31T21:14:02.459Z,12.25
2023-03-31T21:16:29.702Z,11.93
2023-03-31T21:18:58.612Z,12.45
2023-03-31T21:21:26.918Z,12.95
2023-03-31T21:23:54.330Z,13.10
2023-03-31T21:26:22.197Z,10.13
2023-03-31T21:28:51.723Z,11.30
2023-03-31T21:31:19.270Z,11.25
2023-03-31T21:33:47.105Z,11.10
2023-03-31T21:36:16.804Z,11.15
2023-03-31T21:38:45.718Z,12.68
2023-03-31T21:41:15.205Z,12.45
2023-03-31T21:43:42.444Z,12.63
2023-03-31T21:46:26.965Z,10.90
2023-03-31T21:48:54.757Z,11.43
2023-03-31T21:51:22.452Z,9.15
2023-03-31T21:53:51.410Z,10.80
2023-03-31T21:56:18.641Z,10.85
2023-03-31T21:58:46.393Z,10.63
2023-03-31T22:01:14.125Z,10.30
2023-03-31T22:03:42.520Z,11.02
2023-03-31T22:06:10.285Z,10.70
2023-03-31T22:08:38.421Z,10.82
2023-03-31T22:11:07.623Z,12.48
2023-03-31T22:13:35.666Z,10.93
2023-03-31T22:16:03.280Z,10.35
2023-03-31T22:18:30.771Z,10.15
2023-03-31T22:20:58.347Z,10.77
2023-03-31T22:23:27.471Z,9.27
2023-03-31T22:25:54.710Z,10.45
2023-03-31T22:28:21.990Z,10.02
2023-03-31T22:30:49.156Z,10.02
2023-03-31T22:33:16.717Z,10.25
2023-03-31T22:35:44.270Z,9.65
2023-03-31T22:38:13.682Z,10.07
2023-03-31T22:40:41.050Z,8.93
2023-03-31T22:43:08.577Z,10.05
2023-03-31T22:45:37.727Z,9.35
2023-03-31T22:48:07.231Z,10.15
2023-03-31T22:50:34.447Z,10.20
2023-03-31T22:53:01.849Z,9.30
2023-03-31T22:55:29.559Z,9.82
2023-03-31T22:57:57.084Z,9.07
2023-03-31T23:00:24.297Z,9.88
2023-03-31T23:02:51.506Z,8.40
2023-03-31T23:05:18.949Z,8.45
2023-03-31T23:07:46.691Z,9.68
2023-03-31T23:10:13.887Z,9.57
2023-03-31T23:12:41.246Z,10.13
2023-03-31T23:15:08.680Z,8.55
2023-03-31T23:17:35.892Z,9.27
2023-03-31T23:20:04.048Z,9.63
2023-03-31T23:22:31.236Z,9.23
2023-03-31T23:24:58.516Z,9.25
2023-03-31T23:27:25.731Z,9.23
2023-03-31T23:29:52.934Z,8.48
2023-03-31T23:32:20.492Z,9.40
2023-03-31T23:34:47.767Z,7.75
2023-03-31T23:37:15.629Z,8.60
2023-03-31T23:39:42.887Z,8.85
2023-03-31T23:42:12.561Z,8.65
2023-03-31T23:44:39.836Z,9.75
2023-03-31T23:47:07.031Z,8.40
2023-03-31T23:49:34.239Z,8.57
2023-03-31T23:52:01.437Z,8.45
2023-03-31T23:54:28.910Z,8.80
2023-03-31T23:56:56.235Z,7.72
2023-03-31T23:59:23.522Z,7.90
